CheckWX is a tool to help pilots better visualize weather data.  It is not intended as a substitute for an official pre-flight weather briefing.

02:15:50 UTC

KGUY TAF
Guymon Municipal Airport
Guymon, Oklahoma, USA
KGUY 290532Z 2906/3006 VRB04KT P6SM SCT250 FM291900 19014KT P6SM SKC

May-29@
06:00 UTC

May-29 @ 06:00 UTC

May-29@
19:00 UTC

May-29 @ 19:00 UTC

TAF KGUY 290532Z 2906/3006 VRB04KT P6SM SCT250

Expired

Wind
  • Variable at 4 KTS
Cloud Levels
  • Scattered at 25,000' AGL

May-29@
19:00 UTC

May-29 @ 19:00 UTC

May-30@
06:00 UTC

May-30 @ 06:00 UTC

FM291900 19014KT P6SM SKC

From

From Standard forecast or significant change

Wind
  • 190° at 14 KTS
Cloud Levels
  • Clear skies